Time;durP1;ratioP1;P1;durP2;ratioP2;P2;SDS_P1;SDS_P2;PMS_P1;PMS_P2;Temp;Humidity;BMP_temperature;BMP_pressure;BME280_temperature;BME280_humidity;BME280_pressure;Samples;Min_cycle;Max_cycle;Signal;HPM_P1;HPM_P2
2023/04/14 00:01:59;;;;;;;4.80;3.00;;;5.50;99.90;;;;;;5044815;28;20056;-85
2023/04/14 00:04:25;;;;;;;5.15;3.38;;;5.40;99.90;;;;;;5027137;28;20041;-84
2023/04/14 00:06:51;;;;;;;10.48;4.63;;;5.30;99.90;;;;;;5031434;28;20387;-84
2023/04/14 00:09:17;;;;;;;10.23;6.22;;;5.20;99.90;;;;;;5032770;28;20095;-84
2023/04/14 00:11:42;;;;;;;12.00;7.03;;;5.10;99.90;;;;;;5046812;28;20041;-85
2023/04/14 00:14:08;;;;;;;14.88;8.27;;;5.20;99.90;;;;;;5046314;28;20513;-86
2023/04/14 00:16:34;;;;;;;14.13;8.38;;;5.10;99.90;;;;;;5031730;28;20504;-87
2023/04/14 00:19:02;;;;;;;15.15;7.60;;;4.90;99.90;;;;;;5030198;28;20041;-85
2023/04/14 00:21:27;;;;;;;14.32;6.88;;;4.90;99.90;;;;;;5025961;28;20041;-85
2023/04/14 00:23:53;;;;;;;10.60;4.90;;;4.80;99.90;;;;;;5046030;28;20041;-85
2023/04/14 00:26:18;;;;;;;10.20;5.65;;;4.80;99.90;;;;;;5027461;28;20041;-85
2023/04/14 00:28:44;;;;;;;7.28;3.55;;;4.80;99.90;;;;;;5049121;28;20040;-85
2023/04/14 00:31:10;;;;;;;6.60;3.42;;;4.80;99.90;;;;;;5046411;28;20518;-85
2023/04/14 00:33:38;;;;;;;5.05;3.50;;;4.70;99.90;;;;;;5030356;28;20039;-85
2023/04/14 00:36:04;;;;;;;5.15;3.45;;;4.70;99.90;;;;;;5046359;28;20412;-85
2023/04/14 00:38:30;;;;;;;8.02;3.72;;;4.60;99.90;;;;;;5045994;28;20075;-85
2023/04/14 00:40:56;;;;;;;6.47;3.85;;;4.50;99.90;;;;;;5032158;28;20119;-85
2023/04/14 00:43:21;;;;;;;7.43;4.00;;;4.60;99.90;;;;;;5041544;28;20493;-86
2023/04/14 00:45:49;;;;;;;5.75;3.42;;;4.50;99.90;;;;;;5031737;28;20045;-86
2023/04/14 00:48:17;;;;;;;7.03;3.63;;;4.60;99.90;;;;;;5037473;28;20562;-86
2023/04/14 00:50:43;;;;;;;5.95;3.63;;;4.30;99.90;;;;;;5039699;28;20505;-86
2023/04/14 00:53:10;;;;;;;6.78;3.00;;;4.30;99.90;;;;;;5029685;28;20072;-85
2023/04/14 00:55:37;;;;;;;5.85;3.80;;;4.30;99.90;;;;;;5038636;28;20045;-85
2023/04/14 00:58:03;;;;;;;5.03;3.40;;;4.40;99.90;;;;;;5048563;28;20069;-85
2023/04/14 01:00:29;;;;;;;8.60;3.40;;;4.10;99.90;;;;;;5065188;28;20041;-85
2023/04/14 01:02:55;;;;;;;5.47;3.30;;;4.10;99.90;;;;;;5036336;28;20036;-86
2023/04/14 01:05:21;;;;;;;4.57;3.08;;;4.00;99.90;;;;;;5049551;28;20124;-85
2023/04/14 01:07:47;;;;;;;5.40;2.90;;;4.00;99.90;;;;;;5050076;28;20064;-85
2023/04/14 01:10:14;;;;;;;6.78;3.22;;;4.00;99.90;;;;;;5033185;28;20048;-85
2023/04/14 01:12:53;;;;;;;5.28;3.38;;;4.00;99.90;;;;;;5046870;28;20040;-85
2023/04/14 01:15:40;;;;;;;5.15;3.42;;;4.10;99.90;;;;;;5026503;28;20041;-85
2023/04/14 01:18:11;;;;;;;3.55;2.72;;;4.00;99.90;;;;;;5046578;28;20041;-86
2023/04/14 01:20:57;;;;;;;4.00;3.00;;;3.90;99.90;;;;;;5051382;28;20072;-85
2023/04/14 01:23:25;;;;;;;6.53;2.92;;;3.90;99.90;;;;;;5035139;28;20055;-86
2023/04/14 01:26:19;;;;;;;5.68;3.22;;;4.00;99.90;;;;;;5033801;28;20044;-86
2023/04/14 01:29:19;;;;;;;4.43;3.22;;;4.00;99.90;;;;;;5035010;28;20037;-86
2023/04/14 01:31:57;;;;;;;5.73;3.10;;;3.90;99.90;;;;;;5034620;28;20037;-83
2023/04/14 01:34:32;;;;;;;5.68;3.53;;;4.10;99.90;;;;;;5050220;28;20268;-83
2023/04/14 01:37:07;;;;;;;5.20;3.80;;;4.00;99.90;;;;;;5051895;28;20056;-84
2023/04/14 01:39:40;;;;;;;5.68;3.95;;;4.00;99.90;;;;;;5049994;28;20116;-84
2023/04/14 01:42:12;;;;;;;7.32;3.70;;;4.10;99.90;;;;;;5027431;28;20127;-84
2023/04/14 01:44:39;;;;;;;4.13;3.20;;;4.10;99.90;;;;;;5046721;28;20494;-84
2023/04/14 01:47:09;;;;;;;3.78;3.17;;;4.20;99.90;;;;;;5025917;28;20405;-84
2023/04/14 01:49:38;;;;;;;5.30;3.40;;;4.50;99.90;;;;;;5051192;28;20048;-85
2023/04/14 01:52:07;;;;;;;4.90;3.45;;;4.30;99.90;;;;;;5046803;28;20384;-84
2023/04/14 01:54:37;;;;;;;5.72;3.25;;;4.30;99.90;;;;;;5049356;28;20033;-86
2023/04/14 01:57:05;;;;;;;5.90;3.75;;;4.40;99.90;;;;;;5067149;28;20047;-84
2023/04/14 01:59:35;;;;;;;6.10;3.38;;;4.40;99.90;;;;;;5065502;28;20096;-85
2023/04/14 02:02:03;;;;;;;6.28;3.20;;;4.40;99.90;;;;;;5057450;28;20043;-85
2023/04/14 02:04:31;;;;;;;4.80;3.45;;;4.50;99.90;;;;;;5052335;28;20142;-85
2023/04/14 02:06:59;;;;;;;5.60;3.40;;;4.60;99.90;;;;;;5033979;28;20103;-85
2023/04/14 02:09:26;;;;;;;4.90;3.47;;;4.60;99.90;;;;;;5054078;28;20037;-85
2023/04/14 02:11:53;;;;;;;4.93;3.40;;;4.60;99.90;;;;;;5053772;28;20041;-85
2023/04/14 02:14:21;;;;;;;8.82;3.83;;;4.60;99.90;;;;;;5030894;28;20420;-85
2023/04/14 02:16:49;;;;;;;6.63;3.60;;;4.50;99.90;;;;;;5052330;28;20037;-85
2023/04/14 02:19:22;;;;;;;5.03;3.55;;;4.70;99.90;;;;;;5036314;28;20033;-86
2023/04/14 02:21:50;;;;;;;4.65;3.40;;;4.80;99.90;;;;;;5051983;28;20041;-86
2023/04/14 02:24:16;;;;;;;4.88;3.70;;;4.70;99.90;;;;;;5051045;28;20055;-85
2023/04/14 02:26:52;;;;;;;5.30;3.60;;;4.70;99.90;;;;;;5051651;28;20119;-85
2023/04/14 02:29:21;;;;;;;6.18;3.63;;;4.70;99.90;;;;;;5050857;28;20416;-84
2023/04/14 02:31:58;;;;;;;5.43;3.53;;;5.70;99.90;;;;;;5049346;28;20037;-85
2023/04/14 02:34:29;;;;;;;8.13;3.88;;;4.90;99.90;;;;;;5030635;28;20079;-85
2023/04/14 02:36:56;;;;;;;5.38;3.72;;;4.80;99.90;;;;;;5053383;28;20044;-84
2023/04/14 02:39:30;;;;;;;5.22;3.70;;;4.70;99.90;;;;;;5052010;28;20047;-85
2023/04/14 02:42:04;;;;;;;5.18;3.55;;;4.70;99.90;;;;;;5050939;28;20405;-85
2023/04/14 02:44:35;;;;;;;;;;;4.70;99.90;;;;;;5033898;28;20037;-85
2023/04/14 02:47:06;;;;;;;6.55;3.47;;;4.70;99.90;;;;;;5045043;28;19916;-85
2023/04/14 02:49:36;;;;;;;4.15;3.70;;;4.60;99.90;;;;;;5034717;28;20059;-85
2023/04/14 02:52:08;;;;;;;6.00;3.90;;;4.50;99.90;;;;;;5051995;28;20195;-84
2023/04/14 02:54:36;;;;;;;6.80;3.65;;;4.50;99.90;;;;;;5047542;28;20099;-85
2023/04/14 02:57:02;;;;;;;6.85;4.00;;;4.60;99.90;;;;;;5049008;28;20045;-85
2023/04/14 02:59:33;;;;;;;5.95;4.40;;;4.40;99.90;;;;;;5031672;28;20147;-85
2023/04/14 03:02:03;;;;;;;4.88;3.63;;;5.40;99.90;;;;;;5031543;28;20112;-86
2023/04/14 03:04:33;;;;;;;6.10;3.63;;;4.40;99.90;;;;;;5044764;28;20051;-86
2023/04/14 03:07:04;;;;;;;5.57;3.63;;;4.40;99.90;;;;;;5044378;28;20045;-86
2023/04/14 03:09:31;;;;;;;5.03;3.53;;;4.40;99.90;;;;;;5034397;28;20041;-85
2023/04/14 03:11:58;;;;;;;5.45;3.50;;;4.40;99.90;;;;;;5024232;28;20025;-85
2023/04/14 03:14:24;;;;;;;6.88;3.83;;;4.10;99.90;;;;;;5051333;28;20047;-86
2023/04/14 03:16:53;;;;;;;6.38;3.90;;;4.10;99.90;;;;;;5033737;28;20271;-85
2023/04/14 03:19:25;;;;;;;4.95;3.90;;;4.10;99.90;;;;;;5051213;28;20536;-85
2023/04/14 03:21:53;;;;;;;5.55;3.67;;;4.10;99.90;;;;;;5034698;28;20049;-86
2023/04/14 03:24:23;;;;;;;7.00;4.05;;;4.00;99.90;;;;;;5044058;28;20080;-86
2023/04/14 03:27:01;;;;;;;6.43;3.90;;;3.90;99.90;;;;;;5048283;28;20041;-86
2023/04/14 03:29:33;;;;;;;6.95;3.30;;;3.80;99.90;;;;;;5049956;28;20049;-85
2023/04/14 03:32:05;;;;;;;6.20;3.72;;;3.80;99.90;;;;;;5034178;28;20043;-85
2023/04/14 03:34:34;;;;;;;6.15;3.72;;;3.60;99.90;;;;;;5034740;28;20045;-85
2023/04/14 03:37:03;;;;;;;6.68;3.78;;;3.70;99.90;;;;;;5044011;28;20048;-85
2023/04/14 03:39:33;;;;;;;6.28;3.78;;;3.80;99.90;;;;;;5030262;28;20033;-85
2023/04/14 03:42:00;;;;;;;5.45;4.30;;;3.80;99.90;;;;;;5032936;28;20033;-84
2023/04/14 03:44:31;;;;;;;5.85;3.45;;;3.80;99.90;;;;;;5049889;28;20037;-85
2023/04/14 03:47:00;;;;;;;4.03;3.55;;;3.50;99.90;;;;;;5049927;28;20451;-85
2023/04/14 03:49:27;;;;;;;6.22;3.70;;;3.70;99.90;;;;;;5044007;28;20033;-85
2023/04/14 03:51:58;;;;;;;5.03;3.70;;;3.50;99.90;;;;;;5027380;28;20037;-85
2023/04/14 03:54:26;;;;;;;6.20;3.60;;;3.40;99.90;;;;;;5046328;28;20482;-85
2023/04/14 03:56:55;;;;;;;6.15;4.00;;;3.40;99.90;;;;;;5048271;28;20033;-85
2023/04/14 03:59:24;;;;;;;7.20;3.90;;;3.40;99.90;;;;;;5043419;28;20131;-85
2023/04/14 04:01:52;;;;;;;6.65;4.18;;;3.40;99.90;;;;;;5035427;28;20029;-85
2023/04/14 04:04:19;;;;;;;5.95;4.13;;;3.40;99.90;;;;;;5036063;28;20045;-86
2023/04/14 04:06:45;;;;;;;5.05;3.63;;;3.30;99.90;;;;;;5035112;28;20032;-86
2023/04/14 04:09:13;;;;;;;5.38;3.60;;;3.40;99.90;;;;;;5050435;28;20408;-86
2023/04/14 04:11:40;;;;;;;4.63;3.78;;;3.30;99.90;;;;;;5034886;28;20409;-86
2023/04/14 04:14:08;;;;;;;6.00;4.07;;;3.20;99.90;;;;;;5035657;28;20047;-86
2023/04/14 04:16:35;;;;;;;7.20;4.20;;;3.30;99.90;;;;;;5046018;28;20089;-87
2023/04/14 04:19:04;;;;;;;4.72;3.40;;;3.20;99.90;;;;;;5028122;28;20047;-86
2023/04/14 04:21:35;;;;;;;5.28;3.72;;;3.20;99.90;;;;;;5033326;28;20040;-86
2023/04/14 04:24:03;;;;;;;6.78;4.07;;;3.10;99.90;;;;;;5034539;28;20065;-86
2023/04/14 04:26:29;;;;;;;6.00;3.90;;;3.30;99.90;;;;;;5034984;28;20041;-86
2023/04/14 04:28:59;;;;;;;6.47;3.95;;;3.00;99.90;;;;;;5033510;28;20025;-85
2023/04/14 04:31:26;;;;;;;4.35;3.70;;;2.90;99.90;;;;;;5031429;28;20033;-86
2023/04/14 04:33:52;;;;;;;9.73;4.93;;;3.00;99.90;;;;;;5032952;28;20033;-86
2023/04/14 04:36:18;;;;;;;6.07;3.95;;;2.90;99.90;;;;;;5051651;28;20043;-84
2023/04/14 04:38:45;;;;;;;5.95;3.95;;;2.90;99.90;;;;;;5045609;28;20037;-85
2023/04/14 04:41:23;;;;;;;7.72;4.25;;;2.80;99.90;;;;;;5049030;28;20049;-85
2023/04/14 04:43:49;;;;;;;6.25;4.05;;;2.80;99.90;;;;;;5047165;28;20047;-85
2023/04/14 04:46:42;;;;;;;4.60;4.18;;;2.80;99.90;;;;;;5047831;28;20029;-85
2023/04/14 04:49:08;;;;;;;4.93;4.00;;;2.90;99.90;;;;;;5039855;28;20056;-85
2023/04/14 04:51:33;;;;;;;7.10;4.38;;;2.90;99.90;;;;;;5052231;28;20037;-85
2023/04/14 04:53:59;;;;;;;5.05;4.15;;;2.70;99.90;;;;;;5030746;28;20116;-85
2023/04/14 04:56:26;;;;;;;10.57;4.13;;;2.80;99.90;;;;;;5048879;28;20074;-85
2023/04/14 04:58:51;;;;;;;6.63;4.20;;;2.70;99.90;;;;;;5050396;28;20107;-86
2023/04/14 05:01:20;;;;;;;9.00;4.85;;;2.90;99.90;;;;;;5036448;28;20414;-85
2023/04/14 05:03:46;;;;;;;6.50;4.15;;;2.70;99.90;;;;;;5050135;28;20037;-86
2023/04/14 05:06:12;;;;;;;6.15;4.78;;;2.70;99.90;;;;;;5035876;28;20049;-85
2023/04/14 05:08:38;;;;;;;6.07;4.20;;;2.70;99.90;;;;;;5043307;28;20042;-85
2023/04/14 05:11:04;;;;;;;7.47;5.03;;;2.80;99.90;;;;;;5045645;28;20037;-86
2023/04/14 05:13:30;;;;;;;8.05;4.53;;;2.60;99.90;;;;;;5036686;28;20098;-85
2023/04/14 05:16:03;;;;;;;7.13;4.40;;;2.90;99.90;;;;;;5044414;28;20037;-85
2023/04/14 05:18:30;;;;;;;6.75;4.78;;;2.90;99.90;;;;;;5032869;28;20448;-85
2023/04/14 05:21:00;;;;;;;6.18;4.55;;;2.70;99.90;;;;;;5050020;28;20040;-85
2023/04/14 05:23:26;;;;;;;6.05;4.25;;;2.60;99.90;;;;;;5031232;28;20033;-86
2023/04/14 05:25:55;;;;;;;9.25;4.50;;;2.60;99.90;;;;;;5050349;28;20090;-86
2023/04/14 05:28:21;;;;;;;6.88;4.35;;;2.60;99.90;;;;;;5025483;28;20045;-84
2023/04/14 05:30:47;;;;;;;5.78;4.10;;;2.80;99.90;;;;;;5045367;28;20037;-86
2023/04/14 05:33:12;;;;;;;6.43;4.25;;;2.80;99.90;;;;;;5026505;28;20567;-86
2023/04/14 05:35:38;;;;;;;7.70;4.63;;;2.70;99.90;;;;;;5037577;28;20029;-86
2023/04/14 05:38:04;;;;;;;6.38;4.25;;;2.80;99.90;;;;;;5039051;28;20179;-85
2023/04/14 05:40:32;;;;;;;7.93;4.20;;;2.80;99.90;;;;;;5023219;28;20045;-85
2023/04/14 05:42:58;;;;;;;8.43;4.70;;;3.10;99.90;;;;;;5026852;28;20052;-84
2023/04/14 05:45:24;;;;;;;8.20;4.40;;;3.00;99.90;;;;;;5020454;28;20045;-84
2023/04/14 05:47:50;;;;;;;8.75;4.10;;;3.00;99.90;;;;;;5026290;28;20045;-86
2023/04/14 05:50:15;;;;;;;6.95;4.78;;;3.00;99.90;;;;;;5037139;28;20043;-84
2023/04/14 05:52:41;;;;;;;7.82;4.57;;;2.90;99.90;;;;;;5037435;28;20108;-85
2023/04/14 05:55:07;;;;;;;6.22;4.65;;;2.90;99.90;;;;;;5040497;28;20063;-84
2023/04/14 05:57:33;;;;;;;9.02;5.43;;;3.10;99.90;;;;;;5049228;28;20060;-85
2023/04/14 05:59:59;;;;;;;6.82;4.68;;;3.00;99.90;;;;;;5030064;28;20052;-86
2023/04/14 06:02:25;;;;;;;10.63;5.55;;;3.10;99.90;;;;;;5029912;28;20494;-84
2023/04/14 06:04:50;;;;;;;8.93;5.60;;;3.30;99.90;;;;;;5025472;28;20109;-85
2023/04/14 06:07:16;;;;;;;6.55;5.25;;;3.10;99.90;;;;;;5031222;28;20107;-85
2023/04/14 06:09:42;;;;;;;7.13;5.70;;;3.20;99.90;;;;;;5052597;28;20044;-84
2023/04/14 06:12:07;;;;;;;6.70;5.72;;;3.40;99.90;;;;;;5051741;28;20064;-85
2023/04/14 06:14:33;;;;;;;12.05;5.88;;;3.30;99.90;;;;;;5033468;28;20033;-85
2023/04/14 06:16:59;;;;;;;12.15;8.10;;;3.40;99.90;;;;;;5035034;28;20025;-84
2023/04/14 06:19:25;;;;;;;9.30;6.28;;;3.40;99.90;;;;;;5030003;28;20037;-85
2023/04/14 06:21:51;;;;;;;12.55;7.63;;;3.50;99.90;;;;;;5043820;28;20644;-85
2023/04/14 06:24:16;;;;;;;17.27;9.10;;;3.60;99.90;;;;;;5051284;28;20409;-86
2023/04/14 06:26:42;;;;;;;13.63;7.97;;;3.70;99.90;;;;;;5046926;28;20044;-86
2023/04/14 06:29:08;;;;;;;12.95;7.50;;;4.00;99.90;;;;;;5031878;28;20036;-76
2023/04/14 06:31:34;;;;;;;13.38;6.63;;;4.20;99.90;;;;;;5047162;28;20036;-85
2023/04/14 06:34:00;;;;;;;13.77;7.47;;;4.50;99.90;;;;;;5049802;28;20056;-84
2023/04/14 06:36:25;;;;;;;13.05;8.00;;;4.50;99.90;;;;;;5033812;28;20064;-84
2023/04/14 06:38:52;;;;;;;10.25;7.43;;;4.70;99.90;;;;;;5021847;28;20478;-85
2023/04/14 06:41:17;;;;;;;11.13;7.80;;;4.80;99.90;;;;;;5044702;28;20490;-85
2023/04/14 06:43:43;;;;;;;10.32;7.72;;;5.00;99.90;;;;;;5042492;28;20060;-85
2023/04/14 06:46:09;;;;;;;11.40;8.80;;;4.90;99.90;;;;;;5048599;28;20233;-85
2023/04/14 06:48:34;;;;;;;9.57;7.88;;;5.00;99.90;;;;;;5033663;28;20069;-84
2023/04/14 06:51:00;;;;;;;15.23;9.20;;;5.20;99.90;;;;;;5049869;28;20040;-84
2023/04/14 06:53:26;;;;;;;12.15;8.02;;;5.30;99.90;;;;;;5046726;28;20025;-84
2023/04/14 06:55:57;;;;;;;7.75;6.20;;;5.50;99.90;;;;;;5041552;28;20041;-85
2023/04/14 06:58:27;;;;;;;12.43;7.03;;;5.50;99.90;;;;;;5049978;28;20037;-85
2023/04/14 07:01:01;;;;;;;11.00;6.38;;;5.60;99.90;;;;;;5048785;28;20041;-85
2023/04/14 07:03:27;;;;;;;;;;;5.80;99.90;;;;;;5030709;28;20043;-85
2023/04/14 07:05:53;;;;;;;14.82;6.53;;;5.70;99.90;;;;;;5030186;28;20369;-85
2023/04/14 07:08:20;;;;;;;6.30;5.38;;;5.90;99.90;;;;;;5031511;28;20112;-85
2023/04/14 07:10:46;;;;;;;11.10;5.90;;;6.10;99.90;;;;;;5025196;28;20040;-85
2023/04/14 07:13:12;;;;;;;11.30;7.05;;;5.90;99.90;;;;;;5032232;28;20044;-85
2023/04/14 07:15:37;;;;;;;11.88;5.90;;;6.20;99.90;;;;;;5029413;28;20175;-85
2023/04/14 07:18:03;;;;;;;9.02;5.75;;;6.40;99.90;;;;;;5049601;28;20048;-85
2023/04/14 07:20:29;;;;;;;12.23;5.32;;;6.40;99.90;;;;;;5047360;28;20041;-85
2023/04/14 07:22:55;;;;;;;6.43;4.97;;;6.50;99.90;;;;;;5044203;28;20044;-84
2023/04/14 07:25:21;;;;;;;8.45;4.70;;;6.70;99.90;;;;;;5038639;28;20033;-84
2023/04/14 07:27:47;;;;;;;6.35;4.38;;;6.70;99.90;;;;;;5064558;28;20041;-84
2023/04/14 07:30:13;;;;;;;6.68;4.38;;;7.00;99.90;;;;;;5049009;28;20064;-84
2023/04/14 07:32:39;;;;;;;8.00;4.18;;;7.20;99.90;;;;;;5032375;28;20033;-84
2023/04/14 07:35:07;;;;;;;6.78;4.13;;;7.20;99.90;;;;;;5053852;28;20056;-84
2023/04/14 07:37:33;;;;;;;6.97;4.13;;;7.40;99.90;;;;;;5032776;28;20040;-84
2023/04/14 07:39:59;;;;;;;9.40;4.15;;;7.60;99.90;;;;;;5038629;28;20037;-84
2023/04/14 07:42:25;;;;;;;8.43;4.35;;;7.90;99.90;;;;;;5033537;28;20397;-84
2023/04/14 07:44:51;;;;;;;8.38;4.38;;;8.10;99.90;;;;;;5036239;28;20073;-84
2023/04/14 07:47:16;;;;;;;8.70;4.82;;;8.30;99.90;;;;;;5045761;28;20048;-84
2023/04/14 07:49:42;;;;;;;8.38;4.35;;;8.60;99.90;;;;;;5047759;28;20041;-84
2023/04/14 07:52:07;;;;;;;7.90;4.20;;;8.70;99.90;;;;;;5052117;28;20386;-84
2023/04/14 07:54:33;;;;;;;9.43;4.85;;;9.00;99.90;;;;;;5035378;28;20095;-84
2023/04/14 07:56:59;;;;;;;6.20;4.00;;;9.30;99.90;;;;;;5046483;28;20045;-79
2023/04/14 07:59:25;;;;;;;5.63;4.00;;;9.50;99.90;;;;;;5051756;28;20108;-84
2023/04/14 08:01:50;;;;;;;7.60;3.80;;;9.80;99.90;;;;;;5036869;28;20104;-86
2023/04/14 08:04:16;;;;;;;6.80;3.67;;;10.00;99.90;;;;;;5051245;28;20071;-85
2023/04/14 08:06:42;;;;;;;9.68;4.43;;;10.30;99.90;;;;;;5028875;28;20043;-86
2023/04/14 08:09:07;;;;;;;6.95;3.35;;;10.40;99.90;;;;;;5054870;28;20045;-82
2023/04/14 08:11:33;;;;;;;6.65;3.47;;;10.60;99.90;;;;;;5044066;28;20490;-83
2023/04/14 08:13:59;;;;;;;6.32;3.38;;;10.90;99.90;;;;;;5034840;28;20037;-83
2023/04/14 08:16:25;;;;;;;8.90;3.30;;;11.10;99.90;;;;;;5049461;28;20033;-83
2023/04/14 08:18:50;;;;;;;4.63;3.15;;;11.50;99.90;;;;;;5049975;28;20045;-84
2023/04/14 08:21:16;;;;;;;6.30;3.47;;;11.60;99.90;;;;;;5035698;28;20048;-84
2023/04/14 08:23:42;;;;;;;8.00;3.03;;;12.00;99.90;;;;;;5049081;28;20068;-84
2023/04/14 08:26:07;;;;;;;7.95;3.80;;;12.20;99.90;;;;;;5047687;28;20099;-84
2023/04/14 08:28:33;;;;;;;5.72;3.25;;;12.40;99.90;;;;;;5049603;28;20559;-84
2023/04/14 08:30:58;;;;;;;6.55;3.67;;;12.50;99.90;;;;;;5047010;28;20467;-84
2023/04/14 08:33:24;;;;;;;5.63;2.72;;;12.60;99.90;;;;;;5047531;28;20033;-84
2023/04/14 08:35:50;;;;;;;9.32;3.15;;;12.90;99.90;;;;;;5041725;28;20032;-84
2023/04/14 08:38:15;;;;;;;6.50;2.67;;;12.90;99.90;;;;;;5044733;28;20435;-87
2023/04/14 08:40:42;;;;;;;10.23;2.58;;;12.70;99.90;;;;;;5031317;28;20382;-85
2023/04/14 08:43:09;;;;;;;6.05;2.30;;;13.30;99.90;;;;;;5031602;28;20045;-86
2023/04/14 08:45:35;;;;;;;4.03;2.53;;;13.00;99.90;;;;;;5041340;28;20041;-86
2023/04/14 08:48:02;;;;;;;8.07;3.00;;;13.50;99.90;;;;;;5047869;28;20037;-86
2023/04/14 08:50:35;;;;;;;5.63;2.30;;;13.50;99.90;;;;;;5049312;28;20041;-85
2023/04/14 08:53:04;;;;;;;5.70;2.38;;;14.00;99.90;;;;;;5026235;28;20056;-87
2023/04/14 08:55:31;;;;;;;8.38;2.70;;;14.10;99.90;;;;;;5040214;28;20034;-86
2023/04/14 08:57:59;;;;;;;6.03;2.10;;;13.90;99.90;;;;;;5032051;28;20401;-85
2023/04/14 09:00:25;;;;;;;4.75;2.70;;;14.20;99.90;;;;;;5032158;28;20123;-86
2023/04/14 09:02:51;;;;;;;5.70;2.33;;;14.10;99.90;;;;;;5048873;28;20497;-88
2023/04/14 09:05:18;;;;;;;7.60;3.10;;;14.60;99.90;;;;;;5044112;28;20067;-84
2023/04/14 09:07:43;;;;;;;5.55;2.40;;;14.30;99.90;;;;;;5048017;28;20084;-85
2023/04/14 09:10:10;;;;;;;9.93;2.40;;;15.00;99.90;;;;;;5044677;28;20069;-86
2023/04/14 09:12:38;;;;;;;5.88;2.20;;;14.70;99.90;;;;;;5037795;28;20099;-78
2023/04/14 09:15:04;;;;;;;6.93;2.28;;;15.10;99.90;;;;;;5048060;28;20167;-88
2023/04/14 09:17:30;;;;;;;8.15;2.17;;;15.20;99.90;;;;;;5026679;28;20408;-78
2023/04/14 09:19:58;;;;;;;6.72;2.25;;;15.70;99.90;;;;;;5043994;28;20036;-80
2023/04/14 09:22:25;;;;;;;6.30;2.80;;;16.10;99.90;;;;;;5048861;28;20489;-81
2023/04/14 09:24:51;;;;;;;7.10;2.40;;;16.00;99.90;;;;;;5042269;28;20040;-81
2023/04/14 09:27:16;;;;;;;9.00;2.70;;;16.30;99.90;;;;;;5047593;28;20040;-82
2023/04/14 09:29:43;;;;;;;5.95;2.78;;;16.10;99.90;;;;;;5043426;28;20128;-86
2023/04/14 09:32:10;;;;;;;4.78;2.50;;;16.70;99.90;;;;;;5022872;28;20033;-85
2023/04/14 09:34:53;;;;;;;6.05;2.47;;;16.20;99.90;;;;;;5030513;28;20429;-85
2023/04/14 09:37:19;;;;;;;10.70;2.60;;;16.70;99.90;;;;;;5022245;28;20040;-85
2023/04/14 09:39:50;;;;;;;7.22;2.38;;;17.00;99.90;;;;;;5026181;28;20136;-85
2023/04/14 09:42:16;;;;;;;9.35;2.65;;;16.40;81.90;;;;;;5026884;28;20037;-85
2023/04/14 09:44:53;;;;;;;6.00;2.63;;;16.60;99.90;;;;;;5050308;28;20458;-85
2023/04/14 09:47:20;;;;;;;4.90;2.22;;;17.30;97.50;;;;;;5028945;28;20044;-85
2023/04/14 09:49:59;;;;;;;6.72;2.75;;;17.00;99.90;;;;;;5047781;28;20413;-85
2023/04/14 09:52:43;;;;;;;8.75;3.42;;;17.30;76.30;;;;;;5045205;28;20037;-85
2023/04/14 09:55:14;;;;;;;8.30;2.88;;;17.30;76.00;;;;;;5054216;28;20153;-84
2023/04/14 09:57:46;;;;;;;5.93;2.55;;;17.40;99.90;;;;;;5073675;28;20040;-84
2023/04/14 10:00:14;;;;;;;7.50;2.58;;;17.00;85.60;;;;;;5071711;28;20057;-85
2023/04/14 10:02:54;;;;;;;8.73;2.90;;;17.10;77.80;;;;;;5056888;28;20045;-85
2023/04/14 10:05:24;;;;;;;7.53;2.83;;;17.10;71.10;;;;;;5050009;28;20537;-85
2023/04/14 10:07:50;;;;;;;9.02;2.80;;;16.90;93.90;;;;;;5044940;28;20429;-85
2023/04/14 10:10:16;;;;;;;7.63;2.58;;;17.30;95.50;;;;;;5050355;28;20037;-85
2023/04/14 10:12:43;;;;;;;5.88;2.60;;;17.40;95.50;;;;;;5030039;28;20112;-85
2023/04/14 10:15:10;;;;;;;4.97;2.85;;;17.50;83.10;;;;;;5033449;28;20041;-85
2023/04/14 10:17:37;;;;;;;7.22;3.03;;;17.80;90.40;;;;;;5030872;28;20474;-85
2023/04/14 10:20:05;;;;;;;6.68;2.78;;;18.20;78.20;;;;;;5021456;28;20150;-85
2023/04/14 10:22:31;;;;;;;5.90;2.40;;;18.40;72.60;;;;;;5030925;28;20124;-86
2023/04/14 10:24:58;;;;;;;7.72;2.80;;;18.30;69.70;;;;;;5046743;28;20120;-85
2023/04/14 10:27:26;;;;;;;5.60;2.53;;;18.80;69.60;;;;;;5032807;28;20463;-85
2023/04/14 10:29:52;;;;;;;6.75;2.85;;;18.50;67.70;;;;;;5032258;28;20037;-85
2023/04/14 10:32:19;;;;;;;5.53;2.80;;;18.50;68.50;;;;;;5048265;28;20162;-85
2023/04/14 10:35:12;;;;;;;7.47;2.72;;;18.10;66.10;;;;;;5048981;28;20382;-85
2023/04/14 10:37:38;;;;;;;7.10;2.53;;;18.80;63.60;;;;;;5043139;28;20112;-85
2023/04/14 10:40:05;;;;;;;7.55;2.67;;;18.90;69.10;;;;;;5033405;28;20875;-85
2023/04/14 10:43:01;;;;;;;6.57;2.40;;;19.40;65.70;;;;;;5046390;28;20048;-85
2023/04/14 10:45:26;;;;;;;8.13;2.60;;;19.50;60.00;;;;;;5031233;28;20048;-85
2023/04/14 10:47:54;;;;;;;7.43;2.60;;;20.00;66.10;;;;;;5066391;28;20109;-86
2023/04/14 10:50:23;;;;;;;5.95;2.45;;;19.40;63.40;;;;;;5066859;28;20024;-87
2023/04/14 10:52:57;;;;;;;6.10;2.60;;;19.30;62.00;;;;;;5071309;28;20071;-86
2023/04/14 10:55:25;;;;;;;6.05;2.45;;;19.70;61.80;;;;;;5031111;28;20033;-87
2023/04/14 10:57:53;;;;;;;7.70;2.50;;;19.20;62.10;;;;;;5031209;28;20037;-85
2023/04/14 11:00:23;;;;;;;5.05;2.22;;;20.00;62.40;;;;;;5051064;28;20114;-86
2023/04/14 11:03:18;;;;;;;5.18;2.42;;;19.70;60.60;;;;;;5048403;28;20037;-86
2023/04/14 11:05:47;;;;;;;5.72;2.53;;;20.30;58.50;;;;;;5033689;28;20049;-86
2023/04/14 11:08:36;;;;;;;6.97;2.75;;;20.30;57.50;;;;;;5032338;28;20041;-86
2023/04/14 11:11:04;;;;;;;6.45;2.50;;;20.30;47.00;;;;;;5054056;28;20132;-86
2023/04/14 11:13:31;;;;;;;5.97;2.83;;;20.70;51.70;;;;;;5028839;28;20370;-86
2023/04/14 11:16:03;;;;;;;5.75;2.60;;;21.30;51.50;;;;;;5048851;28;20037;-88
2023/04/14 11:18:28;;;;;;;6.93;2.80;;;20.70;50.40;;;;;;5049526;28;20044;-81
2023/04/14 11:21:06;;;;;;;7.00;2.47;;;20.60;50.10;;;;;;5040372;28;20037;-88
2023/04/14 11:23:34;;;;;;;4.88;2.03;;;20.50;47.70;;;;;;5045051;28;20124;-87
2023/04/14 11:26:00;;;;;;;4.15;1.88;;;20.10;50.00;;;;;;5049366;28;20041;-88
2023/04/14 11:28:29;;;;;;;7.15;2.58;;;20.50;50.00;;;;;;5046116;28;20120;-87
2023/04/14 11:31:03;;;;;;;6.10;2.40;;;20.70;49.60;;;;;;5044894;28;20038;-87
2023/04/14 11:33:34;;;;;;;4.53;2.20;;;21.40;47.40;;;;;;5039097;28;20029;-86
2023/04/14 11:36:08;;;;;;;4.15;2.15;;;21.50;46.70;;;;;;5033223;28;20489;-87
2023/04/14 11:38:39;;;;;;;4.97;2.22;;;20.80;45.70;;;;;;5045778;28;20095;-87
2023/04/14 11:41:05;;;;;;;3.90;2.28;;;20.70;47.10;;;;;;5030468;28;20044;-87
2023/04/14 11:43:31;;;;;;;5.28;2.38;;;20.80;47.40;;;;;;5048463;28;20037;-87
2023/04/14 11:45:59;;;;;;;6.63;3.03;;;20.70;47.10;;;;;;5041909;28;20045;-87
2023/04/14 11:48:27;;;;;;;8.57;3.13;;;19.80;47.70;;;;;;5049343;28;20040;-87
2023/04/14 11:50:53;;;;;;;6.72;2.08;;;19.90;47.10;;;;;;5020900;28;20041;-87
2023/04/14 11:53:19;;;;;;;4.18;2.40;;;20.10;47.10;;;;;;5047540;28;20037;-87
2023/04/14 11:55:46;;;;;;;5.68;2.50;;;19.70;46.40;;;;;;5038053;28;20045;-87
2023/04/14 11:58:14;;;;;;;5.72;2.70;;;18.90;46.70;;;;;;5049380;28;20051;-87
2023/04/14 12:00:40;;;;;;;5.45;2.72;;;19.00;48.00;;;;;;5040820;28;20111;-87
2023/04/14 12:03:07;;;;;;;7.57;3.47;;;19.00;47.70;;;;;;5032877;28;20127;-87
2023/04/14 12:05:34;;;;;;;5.43;3.33;;;18.70;47.60;;;;;;5043638;28;20041;-87
2023/04/14 12:08:02;;;;;;;5.03;2.40;;;18.70;48.10;;;;;;5042636;28;20055;-87
2023/04/14 12:10:28;;;;;;;8.32;3.00;;;18.30;47.90;;;;;;5030318;28;20131;-86
2023/04/14 12:13:10;;;;;;;4.00;2.42;;;17.80;49.40;;;;;;5025332;28;20038;-87
2023/04/14 12:15:38;;;;;;;5.32;2.53;;;19.00;49.60;;;;;;5045640;28;20029;-87
2023/04/14 12:18:13;;;;;;;5.75;2.53;;;19.40;48.80;;;;;;5025326;28;20072;-87
2023/04/14 12:20:52;;;;;;;6.43;2.65;;;19.50;48.50;;;;;;5046136;28;20033;-87
2023/04/14 12:23:18;;;;;;;8.73;3.15;;;20.10;48.90;;;;;;5031017;28;20040;-87
2023/04/14 12:25:44;;;;;;;6.47;2.83;;;20.60;48.80;;;;;;5043766;28;20037;-87
2023/04/14 12:28:16;;;;;;;6.70;3.10;;;21.00;47.70;;;;;;5047413;28;20052;-87
2023/04/14 12:30:50;;;;;;;8.53;3.07;;;21.50;50.80;;;;;;5031938;28;20072;-87
2023/04/14 12:33:16;;;;;;;4.60;2.83;;;22.30;47.90;;;;;;5028451;28;20120;-87
2023/04/14 12:35:41;;;;;;;6.20;3.00;;;22.40;48.30;;;;;;5041611;28;20120;-87
2023/04/14 12:38:09;;;;;;;4.03;2.20;;;22.70;47.00;;;;;;5046083;28;20120;-87
2023/04/14 12:40:41;;;;;;;4.82;2.55;;;21.80;46.30;;;;;;5046486;28;20048;-87
2023/04/14 12:43:07;;;;;;;3.95;2.38;;;21.30;46.60;;;;;;5031575;28;20068;-86
2023/04/14 12:45:43;;;;;;;4.90;2.40;;;19.60;47.70;;;;;;5046816;28;20501;-87
2023/04/14 12:48:11;;;;;;;8.35;3.00;;;19.50;48.40;;;;;;5028682;28;20044;-86
2023/04/14 12:50:37;;;;;;;5.35;2.28;;;18.60;49.90;;;;;;5046758;28;20378;-86
2023/04/14 12:53:25;;;;;;;4.25;2.55;;;19.60;51.80;;;;;;5029118;28;20131;-86
2023/04/14 12:56:06;;;;;;;7.43;2.58;;;20.40;49.80;;;;;;5046936;28;20051;-87
2023/04/14 12:58:34;;;;;;;3.88;2.90;;;20.90;48.60;;;;;;5030006;28;20483;-87
2023/04/14 13:01:00;;;;;;;5.90;2.88;;;21.80;48.90;;;;;;5048810;28;20029;-87